KRVS/RVS METAR and TAF weather

Enter ICAO airport designator
Station Type Date Time Source
KRVS METAR 2020/01/24 02:53 UTC NOAA

KRVS 240253Z 28006KT 10SM BKN022 OVC038 06/02 A2994 RMK AO2 SLP146 60002 T00560022 50013


Station Type Date Time Source
KRVS Decoded METAR 2020/01/24 02:53 UTC NOAA

TULSA JONES JR. AIRPORT, OK, United States (KRVS) 36-03N 095-59W 200M
Jan 23, 2020 - 09:53 PM EST / 2020.01.24 0253 UTC
Wind: from the W (280 degrees) at 7 MPH (6 KT):0
Visibility: 10 mile(s):0
Sky conditions: overcast
Temperature: 42.1 F (5.6 C)
Dew Point: 36.0 F (2.2 C)
Relative Humidity: 78%
Pressure (altimeter): 29.94 in. Hg (1013 hPa)
Pressure tendency: 0.04 inches (1.3 hPa) higher than three hours ago
ob: KRVS 240253Z 28006KT 10SM BKN022 OVC038 06/02 A2994 RMK AO2 SLP146 60002 T00560022 50013
cycle: 3

Station Type Date Time Source
KRVS TAF 2020/01/24 02:06 UTC NOAA

TAF
AMD KRVS 240203Z 2402/2424 28005KT P6SM SCT050 BKN080
TEMPO 2402/2404 4SM -RA BR BKN020
FM240400 31011KT 5SM -SHRA BKN012
FM240800 31010KT P6SM BKN015
FM241500 31012G19KT P6SM BKN025

Example: see airport list